sensor_id;sensor_type;location;lat;lon;timestamp;pressure;altitude;pressure_sealevel;temperature;humidity
12178;BME280;6152;48.728;9.256;2023-05-03T00:01:01;97856.09;;;9.27;100.00
12178;BME280;6152;48.728;9.256;2023-05-03T00:03:28;97847.66;;;9.22;100.00
12178;BME280;6152;48.728;9.256;2023-05-03T00:05:54;97852.97;;;9.19;100.00
12178;BME280;6152;48.728;9.256;2023-05-03T00:08:20;97857.59;;;9.12;100.00
12178;BME280;6152;48.728;9.256;2023-05-03T00:10:46;97862.66;;;9.15;100.00
12178;BME280;6152;48.728;9.256;2023-05-03T00:13:13;97861.34;;;9.05;100.00
12178;BME280;6152;48.728;9.256;2023-05-03T00:15:39;97861.22;;;9.08;100.00
12178;BME280;6152;48.728;9.256;2023-05-03T00:18:05;97859.59;;;9.05;100.00
12178;BME280;6152;48.728;9.256;2023-05-03T00:20:31;97854.47;;;9.04;100.00
12178;BME280;6152;48.728;9.256;2023-05-03T00:22:58;97848.50;;;9.02;100.00
12178;BME280;6152;48.728;9.256;2023-05-03T00:25:24;97856.44;;;8.99;100.00
12178;BME280;6152;48.728;9.256;2023-05-03T00:27:50;97842.66;;;8.97;100.00
12178;BME280;6152;48.728;9.256;2023-05-03T00:30:16;97846.41;;;8.90;100.00
12178;BME280;6152;48.728;9.256;2023-05-03T00:32:44;97849.47;;;8.79;100.00
12178;BME280;6152;48.728;9.256;2023-05-03T00:35:10;97850.44;;;8.77;100.00
12178;BME280;6152;48.728;9.256;2023-05-03T00:37:36;97846.88;;;8.79;100.00
12178;BME280;6152;48.728;9.256;2023-05-03T00:40:02;97847.84;;;8.77;100.00
12178;BME280;6152;48.728;9.256;2023-05-03T00:42:31;97852.91;;;8.80;100.00
12178;BME280;6152;48.728;9.256;2023-05-03T00:44:58;97846.94;;;8.78;100.00
12178;BME280;6152;48.728;9.256;2023-05-03T00:47:24;97847.72;;;8.80;100.00
12178;BME280;6152;48.728;9.256;2023-05-03T00:49:50;97849.34;;;8.82;100.00
12178;BME280;6152;48.728;9.256;2023-05-03T00:52:17;97846.53;;;8.87;100.00
12178;BME280;6152;48.728;9.256;2023-05-03T00:54:43;97841.50;;;8.84;100.00
12178;BME280;6152;48.728;9.256;2023-05-03T00:57:09;97839.78;;;8.83;100.00
12178;BME280;6152;48.728;9.256;2023-05-03T00:59:37;97838.13;;;8.82;100.00
12178;BME280;6152;48.728;9.256;2023-05-03T01:02:04;97841.75;;;8.78;100.00
12178;BME280;6152;48.728;9.256;2023-05-03T01:04:30;97841.75;;;8.78;100.00
12178;BME280;6152;48.728;9.256;2023-05-03T01:09:58;97838.84;;;8.85;100.00
12178;BME280;6152;48.728;9.256;2023-05-03T01:15:16;97841.34;;;8.67;100.00
12178;BME280;6152;48.728;9.256;2023-05-03T01:18:01;97837.06;;;8.66;100.00
12178;BME280;6152;48.728;9.256;2023-05-03T01:20:30;97832.25;;;8.56;100.00
12178;BME280;6152;48.728;9.256;2023-05-03T01:25:44;97831.63;;;8.51;100.00
12178;BME280;6152;48.728;9.256;2023-05-03T01:28:10;97833.50;;;8.48;100.00
12178;BME280;6152;48.728;9.256;2023-05-03T01:30:37;97829.13;;;8.48;100.00
12178;BME280;6152;48.728;9.256;2023-05-03T01:33:25;97823.41;;;8.40;100.00
12178;BME280;6152;48.728;9.256;2023-05-03T01:36:15;97821.09;;;8.34;100.00
12178;BME280;6152;48.728;9.256;2023-05-03T01:38:46;97816.00;;;8.31;100.00
12178;BME280;6152;48.728;9.256;2023-05-03T01:41:14;97811.88;;;8.26;100.00
12178;BME280;6152;48.728;9.256;2023-05-03T01:43:42;97822.41;;;8.21;100.00
12178;BME280;6152;48.728;9.256;2023-05-03T01:46:09;97817.44;;;8.17;100.00
12178;BME280;6152;48.728;9.256;2023-05-03T01:48:36;97827.09;;;8.13;100.00
12178;BME280;6152;48.728;9.256;2023-05-03T01:51:02;97821.06;;;8.12;100.00
12178;BME280;6152;48.728;9.256;2023-05-03T01:53:28;97823.69;;;8.11;100.00
12178;BME280;6152;48.728;9.256;2023-05-03T01:55:54;97827.31;;;8.07;100.00
12178;BME280;6152;48.728;9.256;2023-05-03T01:58:20;97828.34;;;8.03;100.00
12178;BME280;6152;48.728;9.256;2023-05-03T02:00:47;97822.50;;;7.98;100.00
12178;BME280;6152;48.728;9.256;2023-05-03T02:03:13;97824.31;;;7.96;100.00
12178;BME280;6152;48.728;9.256;2023-05-03T02:05:39;97819.25;;;7.93;100.00
12178;BME280;6152;48.728;9.256;2023-05-03T02:08:06;97826.34;;;7.88;100.00
12178;BME280;6152;48.728;9.256;2023-05-03T02:10:32;97814.41;;;7.84;100.00
12178;BME280;6152;48.728;9.256;2023-05-03T02:12:58;97816.47;;;7.76;100.00
12178;BME280;6152;48.728;9.256;2023-05-03T02:15:24;97823.53;;;7.71;100.00
12178;BME280;6152;48.728;9.256;2023-05-03T02:17:50;97821.84;;;7.70;100.00
12178;BME280;6152;48.728;9.256;2023-05-03T02:20:19;97822.66;;;7.72;100.00
12178;BME280;6152;48.728;9.256;2023-05-03T02:22:45;97822.09;;;7.63;100.00
12178;BME280;6152;48.728;9.256;2023-05-03T02:25:11;97818.72;;;7.61;100.00
12178;BME280;6152;48.728;9.256;2023-05-03T02:27:37;97822.31;;;7.57;100.00
12178;BME280;6152;48.728;9.256;2023-05-03T02:30:03;97819.75;;;7.57;100.00
12178;BME280;6152;48.728;9.256;2023-05-03T02:32:30;97817.25;;;7.54;100.00
12178;BME280;6152;48.728;9.256;2023-05-03T02:34:56;97821.59;;;7.54;100.00
12178;BME280;6152;48.728;9.256;2023-05-03T02:37:22;97815.44;;;7.56;100.00
12178;BME280;6152;48.728;9.256;2023-05-03T02:39:48;97819.03;;;7.52;100.00
12178;BME280;6152;48.728;9.256;2023-05-03T02:42:14;97817.59;;;7.45;100.00
12178;BME280;6152;48.728;9.256;2023-05-03T02:44:41;97819.41;;;7.43;100.00
12178;BME280;6152;48.728;9.256;2023-05-03T02:47:07;97812.88;;;7.33;100.00
12178;BME280;6152;48.728;9.256;2023-05-03T02:49:33;97820.44;;;7.38;100.00
12178;BME280;6152;48.728;9.256;2023-05-03T02:52:00;97811.06;;;7.35;100.00
12178;BME280;6152;48.728;9.256;2023-05-03T02:54:26;97817.44;;;7.27;100.00
12178;BME280;6152;48.728;9.256;2023-05-03T02:56:52;97818.44;;;7.23;100.00
12178;BME280;6152;48.728;9.256;2023-05-03T02:59:18;97817.69;;;7.19;100.00
12178;BME280;6152;48.728;9.256;2023-05-03T03:01:45;97822.19;;;7.14;100.00
12178;BME280;6152;48.728;9.256;2023-05-03T03:04:12;97813.63;;;7.12;100.00
12178;BME280;6152;48.728;9.256;2023-05-03T03:06:38;97818.81;;;7.12;100.00
12178;BME280;6152;48.728;9.256;2023-05-03T03:09:04;97818.06;;;7.08;100.00
12178;BME280;6152;48.728;9.256;2023-05-03T03:11:30;97813.88;;;7.06;100.00
12178;BME280;6152;48.728;9.256;2023-05-03T03:13:56;97817.34;;;7.05;100.00
12178;BME280;6152;48.728;9.256;2023-05-03T03:16:22;97817.56;;;6.99;100.00
12178;BME280;6152;48.728;9.256;2023-05-03T03:18:48;97823.75;;;6.95;100.00
12178;BME280;6152;48.728;9.256;2023-05-03T03:21:15;97816.88;;;6.94;100.00
12178;BME280;6152;48.728;9.256;2023-05-03T03:23:41;97815.28;;;6.90;100.00
12178;BME280;6152;48.728;9.256;2023-05-03T03:26:07;97816.22;;;6.87;100.00
12178;BME280;6152;48.728;9.256;2023-05-03T03:28:33;97813.78;;;6.83;100.00
12178;BME280;6152;48.728;9.256;2023-05-03T03:30:59;97811.31;;;6.80;100.00
12178;BME280;6152;48.728;9.256;2023-05-03T03:33:25;97813.03;;;6.81;100.00
12178;BME280;6152;48.728;9.256;2023-05-03T03:35:51;97816.31;;;6.86;100.00
12178;BME280;6152;48.728;9.256;2023-05-03T03:38:17;97814.59;;;6.85;100.00
12178;BME280;6152;48.728;9.256;2023-05-03T03:40:44;97819.81;;;6.83;100.00
12178;BME280;6152;48.728;9.256;2023-05-03T03:43:10;97818.19;;;6.81;100.00
12178;BME280;6152;48.728;9.256;2023-05-03T03:45:36;97820.88;;;6.78;100.00
12178;BME280;6152;48.728;9.256;2023-05-03T03:48:02;97824.25;;;6.80;100.00
12178;BME280;6152;48.728;9.256;2023-05-03T03:50:28;97825.34;;;6.73;100.00
12178;BME280;6152;48.728;9.256;2023-05-03T03:52:54;97824.56;;;6.71;100.00
12178;BME280;6152;48.728;9.256;2023-05-03T03:55:21;97827.28;;;6.68;100.00
12178;BME280;6152;48.728;9.256;2023-05-03T03:57:47;97829.59;;;6.75;100.00
12178;BME280;6152;48.728;9.256;2023-05-03T04:00:13;97834.94;;;6.71;100.00
12178;BME280;6152;48.728;9.256;2023-05-03T04:02:39;97835.69;;;6.73;100.00
12178;BME280;6152;48.728;9.256;2023-05-03T04:05:06;97837.19;;;6.80;100.00
12178;BME280;6152;48.728;9.256;2023-05-03T04:07:32;97839.53;;;6.87;100.00
12178;BME280;6152;48.728;9.256;2023-05-03T04:09:59;97826.59;;;6.87;100.00
12178;BME280;6152;48.728;9.256;2023-05-03T04:12:25;97834.88;;;6.97;100.00
12178;BME280;6152;48.728;9.256;2023-05-03T04:14:51;97837.41;;;6.98;100.00
12178;BME280;6152;48.728;9.256;2023-05-03T04:17:17;97850.13;;;7.04;100.00
12178;BME280;6152;48.728;9.256;2023-05-03T04:19:43;97849.97;;;7.09;100.00
12178;BME280;6152;48.728;9.256;2023-05-03T04:22:09;97850.53;;;7.17;100.00
12178;BME280;6152;48.728;9.256;2023-05-03T04:24:36;97849.38;;;7.26;100.00
12178;BME280;6152;48.728;9.256;2023-05-03T04:27:04;97854.28;;;7.33;100.00
12178;BME280;6152;48.728;9.256;2023-05-03T04:29:30;97862.72;;;7.38;100.00
12178;BME280;6152;48.728;9.256;2023-05-03T04:31:56;97862.63;;;7.41;100.00
12178;BME280;6152;48.728;9.256;2023-05-03T04:34:23;97864.94;;;7.49;100.00
12178;BME280;6152;48.728;9.256;2023-05-03T04:36:49;97865.66;;;7.52;100.00
12178;BME280;6152;48.728;9.256;2023-05-03T04:39:15;97869.34;;;7.47;100.00
12178;BME280;6152;48.728;9.256;2023-05-03T04:41:41;97876.13;;;7.49;100.00
12178;BME280;6152;48.728;9.256;2023-05-03T04:44:08;97870.22;;;7.46;100.00
12178;BME280;6152;48.728;9.256;2023-05-03T04:46:34;97868.25;;;7.52;100.00
12178;BME280;6152;48.728;9.256;2023-05-03T04:49:00;97869.25;;;7.48;100.00
12178;BME280;6152;48.728;9.256;2023-05-03T04:51:26;97877.88;;;7.49;100.00
12178;BME280;6152;48.728;9.256;2023-05-03T04:53:53;97877.94;;;7.47;100.00
12178;BME280;6152;48.728;9.256;2023-05-03T04:56:19;97874.34;;;7.51;100.00
12178;BME280;6152;48.728;9.256;2023-05-03T04:58:51;97874.25;;;7.54;100.00
12178;BME280;6152;48.728;9.256;2023-05-03T05:01:18;97877.94;;;7.47;100.00
12178;BME280;6152;48.728;9.256;2023-05-03T05:03:44;97874.66;;;7.42;100.00
12178;BME280;6152;48.728;9.256;2023-05-03T05:06:10;97871.97;;;7.45;100.00
12178;BME280;6152;48.728;9.256;2023-05-03T05:08:37;97882.91;;;7.53;100.00
12178;BME280;6152;48.728;9.256;2023-05-03T05:11:03;97875.28;;;7.49;100.00
12178;BME280;6152;48.728;9.256;2023-05-03T05:13:30;97878.69;;;7.51;100.00
12178;BME280;6152;48.728;9.256;2023-05-03T05:15:56;97880.78;;;7.65;100.00
12178;BME280;6152;48.728;9.256;2023-05-03T05:18:22;97880.28;;;7.55;100.00
12178;BME280;6152;48.728;9.256;2023-05-03T05:20:48;97883.97;;;7.48;100.00
12178;BME280;6152;48.728;9.256;2023-05-03T05:23:14;97883.75;;;7.54;100.00
12178;BME280;6152;48.728;9.256;2023-05-03T05:25:41;97882.78;;;7.56;100.00
12178;BME280;6152;48.728;9.256;2023-05-03T05:28:08;97886.06;;;7.61;100.00
12178;BME280;6152;48.728;9.256;2023-05-03T05:30:34;97893.53;;;7.69;100.00
12178;BME280;6152;48.728;9.256;2023-05-03T05:33:01;97893.44;;;7.72;100.00
12178;BME280;6152;48.728;9.256;2023-05-03T05:35:27;97892.50;;;7.75;100.00
12178;BME280;6152;48.728;9.256;2023-05-03T05:37:54;97898.31;;;7.80;100.00
12178;BME280;6152;48.728;9.256;2023-05-03T05:40:20;97893.59;;;7.91;100.00
12178;BME280;6152;48.728;9.256;2023-05-03T05:42:46;97884.44;;;8.04;100.00
12178;BME280;6152;48.728;9.256;2023-05-03T05:45:13;97884.13;;;8.13;100.00
12178;BME280;6152;48.728;9.256;2023-05-03T05:47:39;97891.78;;;8.16;100.00
12178;BME280;6152;48.728;9.256;2023-05-03T05:50:06;97894.16;;;8.21;100.00
12178;BME280;6152;48.728;9.256;2023-05-03T05:52:32;97897.41;;;8.27;100.00
12178;BME280;6152;48.728;9.256;2023-05-03T05:54:58;97892.00;;;8.33;100.00
12178;BME280;6152;48.728;9.256;2023-05-03T05:57:24;97893.44;;;8.40;100.00
12178;BME280;6152;48.728;9.256;2023-05-03T05:59:51;97894.91;;;8.47;100.00
12178;BME280;6152;48.728;9.256;2023-05-03T06:02:17;97896.47;;;8.51;100.00
12178;BME280;6152;48.728;9.256;2023-05-03T06:04:47;97893.75;;;8.54;100.00
12178;BME280;6152;48.728;9.256;2023-05-03T06:07:14;97897.13;;;8.56;100.00
12178;BME280;6152;48.728;9.256;2023-05-03T06:09:41;97882.09;;;8.65;100.00
12178;BME280;6152;48.728;9.256;2023-05-03T06:12:08;97890.53;;;8.70;100.00
12178;BME280;6152;48.728;9.256;2023-05-03T06:14:35;97882.38;;;8.79;100.00
12178;BME280;6152;48.728;9.256;2023-05-03T06:17:01;97890.38;;;8.94;100.00
12178;BME280;6152;48.728;9.256;2023-05-03T06:19:27;97892.91;;;9.16;100.00
12178;BME280;6152;48.728;9.256;2023-05-03T06:21:53;97891.34;;;9.32;100.00
12178;BME280;6152;48.728;9.256;2023-05-03T06:24:19;97896.66;;;9.49;100.00
12178;BME280;6152;48.728;9.256;2023-05-03T06:26:46;97882.19;;;9.62;100.00
12178;BME280;6152;48.728;9.256;2023-05-03T06:29:13;97895.56;;;9.74;100.00
12178;BME280;6152;48.728;9.256;2023-05-03T06:31:39;97889.53;;;9.92;100.00
12178;BME280;6152;48.728;9.256;2023-05-03T06:34:07;97896.38;;;10.13;100.00
12178;BME280;6152;48.728;9.256;2023-05-03T06:36:33;97894.00;;;10.27;100.00
12178;BME280;6152;48.728;9.256;2023-05-03T06:39:00;97896.50;;;10.47;100.00
12178;BME280;6152;48.728;9.256;2023-05-03T06:41:30;97889.41;;;10.68;100.00
12178;BME280;6152;48.728;9.256;2023-05-03T06:43:57;97890.66;;;10.95;100.00
12178;BME280;6152;48.728;9.256;2023-05-03T06:46:25;97887.59;;;11.04;100.00
12178;BME280;6152;48.728;9.256;2023-05-03T06:48:51;97895.34;;;11.06;100.00
12178;BME280;6152;48.728;9.256;2023-05-03T06:51:24;97893.50;;;11.08;100.00
12178;BME280;6152;48.728;9.256;2023-05-03T06:53:58;97890.13;;;11.06;100.00
12178;BME280;6152;48.728;9.256;2023-05-03T06:56:26;97894.13;;;10.96;100.00
12178;BME280;6152;48.728;9.256;2023-05-03T06:58:53;97896.41;;;10.85;100.00
12178;BME280;6152;48.728;9.256;2023-05-03T07:01:19;97892.19;;;10.82;100.00
12178;BME280;6152;48.728;9.256;2023-05-03T07:03:46;97890.28;;;10.86;100.00
12178;BME280;6152;48.728;9.256;2023-05-03T07:06:12;97892.59;;;10.92;100.00
12178;BME280;6152;48.728;9.256;2023-05-03T07:08:38;97887.28;;;10.76;100.00
12178;BME280;6152;48.728;9.256;2023-05-03T07:11:04;97892.75;;;10.89;100.00
12178;BME280;6152;48.728;9.256;2023-05-03T07:13:31;97886.00;;;10.85;100.00
12178;BME280;6152;48.728;9.256;2023-05-03T07:15:57;97887.44;;;10.90;100.00
12178;BME280;6152;48.728;9.256;2023-05-03T07:18:23;97881.25;;;10.93;100.00
12178;BME280;6152;48.728;9.256;2023-05-03T07:20:49;97876.09;;;11.08;100.00
12178;BME280;6152;48.728;9.256;2023-05-03T07:23:16;97883.22;;;11.22;100.00
12178;BME280;6152;48.728;9.256;2023-05-03T07:25:42;97868.22;;;11.27;100.00
12178;BME280;6152;48.728;9.256;2023-05-03T07:28:09;97869.09;;;11.43;100.00
12178;BME280;6152;48.728;9.256;2023-05-03T07:30:35;97869.78;;;11.47;100.00
12178;BME280;6152;48.728;9.256;2023-05-03T07:33:01;97869.47;;;11.53;100.00
12178;BME280;6152;48.728;9.256;2023-05-03T07:35:28;97872.03;;;11.70;100.00
12178;BME280;6152;48.728;9.256;2023-05-03T07:37:54;97861.66;;;11.86;100.00
12178;BME280;6152;48.728;9.256;2023-05-03T07:40:21;97861.91;;;11.97;100.00
12178;BME280;6152;48.728;9.256;2023-05-03T07:42:47;97863.09;;;12.07;100.00
12178;BME280;6152;48.728;9.256;2023-05-03T07:45:14;97861.84;;;12.30;100.00
12178;BME280;6152;48.728;9.256;2023-05-03T07:47:40;97866.50;;;12.70;100.00
12178;BME280;6152;48.728;9.256;2023-05-03T07:50:07;97860.13;;;12.90;100.00
12178;BME280;6152;48.728;9.256;2023-05-03T07:52:37;97865.22;;;13.07;100.00
12178;BME280;6152;48.728;9.256;2023-05-03T07:55:04;97862.88;;;13.32;100.00
12178;BME280;6152;48.728;9.256;2023-05-03T07:57:30;97857.22;;;13.54;100.00
12178;BME280;6152;48.728;9.256;2023-05-03T07:59:57;97862.91;;;13.75;100.00
12178;BME280;6152;48.728;9.256;2023-05-03T08:02:23;97851.63;;;14.15;100.00
12178;BME280;6152;48.728;9.256;2023-05-03T08:04:49;97855.91;;;14.30;100.00
12178;BME280;6152;48.728;9.256;2023-05-03T08:07:15;97849.94;;;14.55;100.00
12178;BME280;6152;48.728;9.256;2023-05-03T08:09:42;97846.63;;;14.92;100.00
12178;BME280;6152;48.728;9.256;2023-05-03T08:12:08;97846.09;;;15.00;100.00
12178;BME280;6152;48.728;9.256;2023-05-03T08:14:34;97851.81;;;15.32;100.00
12178;BME280;6152;48.728;9.256;2023-05-03T08:17:02;97850.59;;;15.62;100.00
12178;BME280;6152;48.728;9.256;2023-05-03T08:19:29;97844.13;;;16.41;100.00
12178;BME280;6152;48.728;9.256;2023-05-03T08:21:56;97843.56;;;17.42;98.50
12178;BME280;6152;48.728;9.256;2023-05-03T08:24:23;97852.53;;;18.61;88.15
12178;BME280;6152;48.728;9.256;2023-05-03T08:26:49;97853.28;;;19.78;76.99
12178;BME280;6152;48.728;9.256;2023-05-03T08:29:16;97846.84;;;19.30;65.88
12178;BME280;6152;48.728;9.256;2023-05-03T08:31:42;97855.34;;;19.33;68.13
12178;BME280;6152;48.728;9.256;2023-05-03T08:34:08;97853.78;;;19.51;67.17
12178;BME280;6152;48.728;9.256;2023-05-03T08:36:36;97850.59;;;19.99;64.51
12178;BME280;6152;48.728;9.256;2023-05-03T08:39:03;97845.00;;;21.20;60.91
12178;BME280;6152;48.728;9.256;2023-05-03T08:41:33;97844.81;;;22.24;55.15
12178;BME280;6152;48.728;9.256;2023-05-03T08:44:00;97841.56;;;23.28;49.54
12178;BME280;6152;48.728;9.256;2023-05-03T08:46:27;97826.69;;;24.54;46.54
12178;BME280;6152;48.728;9.256;2023-05-03T08:48:54;97829.03;;;25.95;42.19
12178;BME280;6152;48.728;9.256;2023-05-03T08:51:22;97826.63;;;26.55;38.75
12178;BME280;6152;48.728;9.256;2023-05-03T08:53:48;97830.22;;;27.38;37.52
12178;BME280;6152;48.728;9.256;2023-05-03T08:58:53;97820.84;;;27.94;34.13
12178;BME280;6152;48.728;9.256;2023-05-03T09:01:20;97828.69;;;28.25;34.79
12178;BME280;6152;48.728;9.256;2023-05-03T09:03:52;97824.03;;;29.76;33.47
12178;BME280;6152;48.728;9.256;2023-05-03T09:06:23;97819.69;;;30.91;31.69
12178;BME280;6152;48.728;9.256;2023-05-03T09:08:53;97816.44;;;31.28;30.08
12178;BME280;6152;48.728;9.256;2023-05-03T09:11:27;97819.25;;;30.81;30.46
12178;BME280;6152;48.728;9.256;2023-05-03T09:14:14;97833.81;;;31.19;29.14
12178;BME280;6152;48.728;9.256;2023-05-03T09:16:42;97828.47;;;31.72;29.01
12178;BME280;6152;48.728;9.256;2023-05-03T09:19:10;97826.06;;;30.90;29.04
12178;BME280;6152;48.728;9.256;2023-05-03T09:21:42;97824.72;;;31.33;28.70
12178;BME280;6152;48.728;9.256;2023-05-03T09:24:16;97824.91;;;31.12;28.86
12178;BME280;6152;48.728;9.256;2023-05-03T09:26:44;97823.25;;;30.44;29.48
12178;BME280;6152;48.728;9.256;2023-05-03T09:29:30;97816.78;;;30.92;29.09
12178;BME280;6152;48.728;9.256;2023-05-03T09:32:14;97817.28;;;31.55;28.44
12178;BME280;6152;48.728;9.256;2023-05-03T09:34:42;97806.00;;;30.79;29.14
12178;BME280;6152;48.728;9.256;2023-05-03T09:37:08;97816.66;;;27.63;32.29
12178;BME280;6152;48.728;9.256;2023-05-03T09:39:34;97806.22;;;27.53;33.83
12178;BME280;6152;48.728;9.256;2023-05-03T09:42:17;97802.66;;;28.55;32.91
12178;BME280;6152;48.728;9.256;2023-05-03T09:44:46;97802.13;;;30.00;30.53
12178;BME280;6152;48.728;9.256;2023-05-03T09:47:19;97805.19;;;30.79;30.66
12178;BME280;6152;48.728;9.256;2023-05-03T09:49:47;97802.78;;;31.43;28.98
12178;BME280;6152;48.728;9.256;2023-05-03T09:52:13;97801.72;;;32.61;27.69
12178;BME280;6152;48.728;9.256;2023-05-03T09:54:39;97797.47;;;32.78;26.70
12178;BME280;6152;48.728;9.256;2023-05-03T09:57:07;97795.22;;;33.06;26.70
12178;BME280;6152;48.728;9.256;2023-05-03T09:59:37;97801.22;;;33.89;25.99
12178;BME280;6152;48.728;9.256;2023-05-03T10:02:06;97791.47;;;34.24;26.22
12178;BME280;6152;48.728;9.256;2023-05-03T10:04:50;97788.03;;;35.13;24.39
12178;BME280;6152;48.728;9.256;2023-05-03T10:07:22;97786.22;;;31.79;26.63
12178;BME280;6152;48.728;9.256;2023-05-03T10:09:50;97789.97;;;31.51;27.28
12178;BME280;6152;48.728;9.256;2023-05-03T10:12:17;97788.66;;;30.34;28.17
12178;BME280;6152;48.728;9.256;2023-05-03T10:14:47;97787.88;;;29.37;30.07
12178;BME280;6152;48.728;9.256;2023-05-03T10:17:25;97783.41;;;28.81;30.37
12178;BME280;6152;48.728;9.256;2023-05-03T10:19:56;97782.69;;;27.11;33.01
12178;BME280;6152;48.728;9.256;2023-05-03T10:22:25;97790.22;;;27.30;33.44
12178;BME280;6152;48.728;9.256;2023-05-03T10:30:37;97778.59;;;25.45;34.83
12178;BME280;6152;48.728;9.256;2023-05-03T10:35:50;97779.41;;;23.64;38.12
12178;BME280;6152;48.728;9.256;2023-05-03T10:38:21;97769.41;;;24.42;36.82
12178;BME280;6152;48.728;9.256;2023-05-03T10:40:47;97774.06;;;25.78;34.70
12178;BME280;6152;48.728;9.256;2023-05-03T10:46:01;97773.91;;;26.26;34.36
12178;BME280;6152;48.728;9.256;2023-05-03T10:48:28;97764.38;;;28.54;31.70
12178;BME280;6152;48.728;9.256;2023-05-03T10:50:55;97774.00;;;30.30;29.55
12178;BME280;6152;48.728;9.256;2023-05-03T10:53:40;97763.41;;;30.89;27.66
12178;BME280;6152;48.728;9.256;2023-05-03T10:56:11;97763.69;;;29.09;29.76
12178;BME280;6152;48.728;9.256;2023-05-03T10:58:45;97762.31;;;27.77;31.78
12178;BME280;6152;48.728;9.256;2023-05-03T11:01:14;97772.41;;;27.75;31.43
12178;BME280;6152;48.728;9.256;2023-05-03T11:04:01;97777.34;;;27.48;32.39
12178;BME280;6152;48.728;9.256;2023-05-03T11:06:39;97764.72;;;27.86;31.64
12178;BME280;6152;48.728;9.256;2023-05-03T11:09:10;97761.81;;;29.93;29.39
12178;BME280;6152;48.728;9.256;2023-05-03T11:11:40;97754.31;;;31.76;26.67
12178;BME280;6152;48.728;9.256;2023-05-03T11:14:07;97747.53;;;32.69;25.21
12178;BME280;6152;48.728;9.256;2023-05-03T11:16:34;97748.59;;;32.68;25.17
12178;BME280;6152;48.728;9.256;2023-05-03T11:19:02;97750.41;;;31.32;26.35
12178;BME280;6152;48.728;9.256;2023-05-03T11:21:28;97743.16;;;31.46;27.32
12178;BME280;6152;48.728;9.256;2023-05-03T11:23:54;97735.44;;;32.78;25.52
12178;BME280;6152;48.728;9.256;2023-05-03T11:26:22;97737.78;;;34.10;24.51
12178;BME280;6152;48.728;9.256;2023-05-03T11:28:52;97734.72;;;34.84;22.79
12178;BME280;6152;48.728;9.256;2023-05-03T11:31:20;97732.00;;;35.25;22.65
12178;BME280;6152;48.728;9.256;2023-05-03T11:33:48;97719.31;;;34.25;23.03
12178;BME280;6152;48.728;9.256;2023-05-03T11:36:15;97724.84;;;34.12;23.87
12178;BME280;6152;48.728;9.256;2023-05-03T11:38:41;97727.31;;;32.02;24.15
12178;BME280;6152;48.728;9.256;2023-05-03T11:41:15;97723.25;;;30.01;26.81
12178;BME280;6152;48.728;9.256;2023-05-03T11:43:46;97720.19;;;27.79;29.57
12178;BME280;6152;48.728;9.256;2023-05-03T11:46:16;97714.25;;;28.70;28.48
12178;BME280;6152;48.728;9.256;2023-05-03T11:48:44;97726.56;;;29.69;28.51
12178;BME280;6152;48.728;9.256;2023-05-03T11:51:10;97720.66;;;30.27;26.42
12178;BME280;6152;48.728;9.256;2023-05-03T11:53:42;97720.47;;;28.55;28.45
12178;BME280;6152;48.728;9.256;2023-05-03T11:56:13;97728.50;;;27.17;30.03
12178;BME280;6152;48.728;9.256;2023-05-03T11:59:12;97719.63;;;26.56;31.38
12178;BME280;6152;48.728;9.256;2023-05-03T12:01:38;97712.69;;;27.74;29.81
12178;BME280;6152;48.728;9.256;2023-05-03T12:04:06;97715.19;;;27.46;29.98
12178;BME280;6152;48.728;9.256;2023-05-03T12:06:33;97708.53;;;27.42;29.72
12178;BME280;6152;48.728;9.256;2023-05-03T12:09:03;97699.03;;;26.42;30.62
12178;BME280;6152;48.728;9.256;2023-05-03T12:11:41;97706.41;;;26.86;31.08
12178;BME280;6152;48.728;9.256;2023-05-03T12:14:07;97706.03;;;26.66;31.17
12178;BME280;6152;48.728;9.256;2023-05-03T12:16:50;97708.66;;;26.29;31.65
12178;BME280;6152;48.728;9.256;2023-05-03T12:19:29;97697.84;;;25.28;31.90
12178;BME280;6152;48.728;9.256;2023-05-03T12:21:55;97696.56;;;24.59;32.77
12178;BME280;6152;48.728;9.256;2023-05-03T12:24:22;97691.31;;;24.01;34.77
12178;BME280;6152;48.728;9.256;2023-05-03T12:26:48;97702.09;;;23.50;35.46
12178;BME280;6152;48.728;9.256;2023-05-03T12:29:15;97689.94;;;22.52;37.29
12178;BME280;6152;48.728;9.256;2023-05-03T12:31:41;97690.94;;;22.34;39.09
12178;BME280;6152;48.728;9.256;2023-05-03T12:34:08;97703.88;;;22.19;38.87
12178;BME280;6152;48.728;9.256;2023-05-03T12:36:34;97695.22;;;22.17;39.22
12178;BME280;6152;48.728;9.256;2023-05-03T12:39:01;97702.81;;;22.12;37.71
12178;BME280;6152;48.728;9.256;2023-05-03T12:41:28;97698.88;;;21.98;37.22
12178;BME280;6152;48.728;9.256;2023-05-03T12:43:57;97698.69;;;22.00;38.55
12178;BME280;6152;48.728;9.256;2023-05-03T12:46:23;97687.59;;;21.87;37.80
12178;BME280;6152;48.728;9.256;2023-05-03T12:48:53;97690.69;;;21.92;38.74
12178;BME280;6152;48.728;9.256;2023-05-03T12:51:19;97690.06;;;21.98;37.42
12178;BME280;6152;48.728;9.256;2023-05-03T12:53:46;97679.72;;;21.77;37.69
12178;BME280;6152;48.728;9.256;2023-05-03T12:56:14;97680.94;;;21.55;37.06
12178;BME280;6152;48.728;9.256;2023-05-03T12:58:40;97686.56;;;21.06;37.75
12178;BME280;6152;48.728;9.256;2023-05-03T13:01:07;97686.47;;;20.79;38.75
12178;BME280;6152;48.728;9.256;2023-05-03T13:03:34;97684.38;;;20.73;38.56
12178;BME280;6152;48.728;9.256;2023-05-03T13:06:00;97667.59;;;20.54;39.54
12178;BME280;6152;48.728;9.256;2023-05-03T13:08:29;97671.03;;;20.26;40.98
12178;BME280;6152;48.728;9.256;2023-05-03T13:10:55;97671.63;;;20.39;40.71
12178;BME280;6152;48.728;9.256;2023-05-03T13:13:22;97666.59;;;20.55;41.62
12178;BME280;6152;48.728;9.256;2023-05-03T13:15:49;97665.03;;;20.82;40.86
12178;BME280;6152;48.728;9.256;2023-05-03T13:18:18;97667.06;;;20.97;40.19
12178;BME280;6152;48.728;9.256;2023-05-03T13:20:44;97671.41;;;20.79;38.68
12178;BME280;6152;48.728;9.256;2023-05-03T13:23:10;97668.50;;;20.73;39.37
12178;BME280;6152;48.728;9.256;2023-05-03T13:25:36;97661.47;;;20.54;39.01
12178;BME280;6152;48.728;9.256;2023-05-03T13:28:05;97665.09;;;20.43;39.38
12178;BME280;6152;48.728;9.256;2023-05-03T13:30:31;97660.63;;;20.34;39.14
12178;BME280;6152;48.728;9.256;2023-05-03T13:32:57;97658.50;;;20.09;39.18
12178;BME280;6152;48.728;9.256;2023-05-03T13:35:23;97653.44;;;19.58;40.09